EDHI

Hamburg-Finkenwerder Airport

Hamburg, Germany
METAR EDHI 141650Z 11003KT 060V170 9999 FEW018 OVC042 01/M02 Q1027
Observed Flight Rules
Dec-14 @ 16:50 UTC (32 minutes ago) Visual Flight Rules
Wind Visibility Clouds
110° at 3 knots 10,000+ meters
  • Few at 1,800' AGL
  • Overcast at 4,200' AGL
Temperatures Readings
Current 1°C / 34°F
Dewpoint -2°C / 28°F
Humidity 81%
Altimeter 30.32" Hg
Pressure 1027 hPa
Elevation 13
METAR EDHI 141650Z 11003KT 060V170 9999 FEW018 OVC042 01/M02 Q1027
Observed Flight Rules
Dec-14 @ 16:50 UTC
(32 minutes ago)
VFR
Wind Visibility
110° at 3 knots 10,000+ meters
Clouds
  • Few at 1,800' AGL
  • Overcast at 4,200' AGL
Temperature Dewpoint
1°C / 34°F -2°C / 28°F
Humidity Altimeter Pressure
81% 30.32" Hg 1027 hPa